Back to Top

Language: 

My Weather Underground Personal Weather Station Historical Data with Graphs...

Delerius Weather Station Historical Data
Daily Summary for November 30, 2017 Units:  English    Metric   Both
« Previous Day
Next Day »
Daily Weekly Monthly Yearly Custom
  High: Low: Average:
Temperature: 38.8 °F 31.6 °F 34.9 °F
Dew Point: 33.3 °F 25.7 °F 28.9 °F
Humidity: 93 % 66 % 79 %
Wind Speed: 14.0 mph 4.0 mph 8.5 mph
Wind Gust: 25.0 mph - -
Wind:- - NW
Pressure: 30.03 in 29.88 in -
Precipitation: 0.05 in    
Historical Graphs
 
 
Tabular Data for November 30, 2017
Time Temperature Dew Point Pressure Wind Wind Speed Wind Gust Humidity Rainfall Rate (Hourly) solar Conditions
00:01 31.8 °F 27.2 °F 29.95 in WNW 7.0 mph 10.0 mph 83 % 0.00 in 0 W/m2
00:06 32.2 °F 27.3 °F 29.95 in NW 10.0 mph 16.0 mph 82 % 0.00 in 0 W/m2
00:11 32.4 °F 27.5 °F 29.94 in NW 8.0 mph 14.0 mph 82 % 0.00 in 0 W/m2
00:21 32.7 °F 27.5 °F 29.94 in WNW 10.0 mph 15.0 mph 81 % 0.00 in 0 W/m2
00:26 32.7 °F 27.2 °F 29.94 in WNW 8.0 mph 12.0 mph 80 % 0.00 in 0 W/m2
00:36 32.5 °F 27.1 °F 29.94 in WNW 7.0 mph 11.0 mph 80 % 0.00 in 0 W/m2
00:41 32.5 °F 27.1 °F 29.94 in WNW 7.0 mph 11.0 mph 80 % 0.00 in 0 W/m2
00:46 32.5 °F 27.1 °F 29.93 in WNW 7.0 mph 13.0 mph 80 % 0.00 in 0 W/m2
00:56 32.5 °F 27.1 °F 29.93 in NW 8.0 mph 14.0 mph 80 % 0.00 in 0 W/m2
01:06 32.9 °F 27.1 °F 29.93 in NW 8.0 mph 16.0 mph 79 % 0.00 in 0 W/m2
01:11 32.9 °F 27.1 °F 29.93 in WNW 8.0 mph 11.0 mph 79 % 0.00 in 0 W/m2
01:16 32.9 °F 27.1 °F 29.93 in WNW 7.0 mph 11.0 mph 79 % 0.00 in 0 W/m2
01:21 32.7 °F 26.9 °F 29.92 in WNW 7.0 mph 11.0 mph 79 % 0.00 in 0 W/m2
01:26 32.7 °F 26.9 °F 29.92 in WNW 7.0 mph 11.0 mph 79 % 0.00 in 0 W/m2
01:36 32.5 °F 26.7 °F 29.92 in WNW 7.0 mph 12.0 mph 79 % 0.00 in 0 W/m2
01:41 32.5 °F 26.7 °F 29.92 in NW 8.0 mph 14.0 mph 79 % 0.00 in 0 W/m2
01:47 32.7 °F 26.9 °F 29.92 in NW 6.0 mph 11.0 mph 79 % 0.00 in 0 W/m2
01:51 32.7 °F 26.9 °F 29.92 in NW 8.0 mph 14.0 mph 79 % 0.00 in 0 W/m2
01:57 32.7 °F 26.9 °F 29.92 in NW 6.0 mph 10.0 mph 79 % 0.00 in 0 W/m2
02:12 32.7 °F 26.9 °F 29.92 in WNW 7.0 mph 12.0 mph 79 % 0.00 in 0 W/m2
02:17 32.5 °F 26.7 °F 29.92 in WNW 9.0 mph 13.0 mph 79 % 0.00 in 0 W/m2
02:22 32.5 °F 26.7 °F 29.92 in NW 8.0 mph 12.0 mph 79 % 0.00 in 0 W/m2
02:27 32.5 °F 26.7 °F 29.91 in NW 9.0 mph 16.0 mph 79 % 0.00 in 0 W/m2
02:32 32.5 °F 26.7 °F 29.91 in WNW 9.0 mph 14.0 mph 79 % 0.00 in 0 W/m2
02:42 32.5 °F 26.7 °F 29.92 in WNW 8.0 mph 13.0 mph 79 % 0.00 in 0 W/m2
02:52 32.7 °F 26.6 °F 29.91 in NW 9.0 mph 14.0 mph 78 % 0.00 in 0 W/m2
02:57 32.7 °F 26.6 °F 29.91 in WNW 10.0 mph 15.0 mph 78 % 0.00 in 0 W/m2
03:02 32.9 °F 26.8 °F 29.91 in WNW 10.0 mph 20.0 mph 78 % 0.00 in 0 W/m2
03:07 32.7 °F 26.6 °F 29.91 in WNW 8.0 mph 14.0 mph 78 % 0.00 in 0 W/m2
03:12 32.7 °F 26.6 °F 29.91 in WNW 7.0 mph 13.0 mph 78 % 0.00 in 0 W/m2
03:17 32.5 °F 26.4 °F 29.91 in WNW 7.0 mph 14.0 mph 78 % 0.00 in 0 W/m2
03:22 32.4 °F 26.6 °F 29.90 in WNW 7.0 mph 11.0 mph 79 % 0.00 in 0 W/m2
03:27 32.2 °F 26.4 °F 29.90 in WNW 8.0 mph 12.0 mph 79 % 0.00 in 0 W/m2
03:52 32.7 °F 26.6 °F 29.90 in WNW 9.0 mph 16.0 mph 78 % 0.00 in 0 W/m2
03:57 32.7 °F 26.3 °F 29.90 in NW 8.0 mph 16.0 mph 77 % 0.00 in 0 W/m2
04:02 32.9 °F 26.5 °F 29.90 in WNW 10.0 mph 15.0 mph 77 % 0.00 in 0 W/m2
04:07 32.9 °F 26.5 °F 29.90 in WNW 8.0 mph 14.0 mph 77 % 0.00 in 0 W/m2
04:12 32.7 °F 26.3 °F 29.90 in WNW 9.0 mph 14.0 mph 77 % 0.00 in 0 W/m2
04:22 32.5 °F 26.4 °F 29.90 in NW 6.0 mph 12.0 mph 78 % 0.00 in 0 W/m2
04:27 32.4 °F 26.3 °F 29.90 in WNW 9.0 mph 15.0 mph 78 % 0.00 in 0 W/m2
04:32 32.4 °F 26.3 °F 29.90 in NW 7.0 mph 12.0 mph 78 % 0.00 in 0 W/m2
04:42 32.2 °F 26.1 °F 29.90 in WNW 8.0 mph 13.0 mph 78 % 0.00 in 0 W/m2
04:44 32.2 °F 26.1 °F 29.90 in WNW 9.0 mph 13.0 mph 78 % 0.00 in 0 W/m2
04:54 32.2 °F 26.4 °F 29.90 in WNW 8.0 mph 14.0 mph 79 % 0.00 in 0 W/m2
05:09 32.2 °F 26.1 °F 29.90 in NW 8.0 mph 14.0 mph 78 % 0.00 in 0 W/m2
05:14 32.2 °F 26.1 °F 29.90 in WNW 7.0 mph 13.0 mph 78 % 0.00 in 0 W/m2
05:24 32.2 °F 26.1 °F 29.90 in NW 7.0 mph 10.0 mph 78 % 0.00 in 0 W/m2
05:29 32.0 °F 25.9 °F 29.90 in WNW 7.0 mph 12.0 mph 78 % 0.00 in 0 W/m2
05:34 31.8 °F 25.7 °F 29.89 in WNW 9.0 mph 15.0 mph 78 % 0.00 in 0 W/m2
05:49 31.8 °F 25.7 °F 29.89 in WNW 7.0 mph 12.0 mph 78 % 0.00 in 0 W/m2
05:54 31.8 °F 26.0 °F 29.89 in WNW 9.0 mph 14.0 mph 79 % 0.00 in 0 W/m2
05:59 31.8 °F 26.0 °F 29.89 in NW 9.0 mph 14.0 mph 79 % 0.00 in 0 W/m2
06:09 31.6 °F 25.9 °F 29.89 in WNW 7.0 mph 10.0 mph 79 % 0.00 in 0 W/m2
06:14 31.6 °F 25.9 °F 29.89 in WNW 8.0 mph 11.0 mph 79 % 0.00 in 0 W/m2
06:19 31.6 °F 25.9 °F 29.89 in WNW 9.0 mph 15.0 mph 79 % 0.00 in 0 W/m2
06:24 31.6 °F 25.9 °F 29.89 in WNW 8.0 mph 15.0 mph 79 % 0.00 in 0 W/m2
06:34 31.6 °F 25.9 °F 29.88 in WNW 8.0 mph 14.0 mph 79 % 0.00 in 0 W/m2
06:39 31.6 °F 25.9 °F 29.88 in WNW 8.0 mph 12.0 mph 79 % 0.00 in 0 W/m2
06:49 31.8 °F 26.0 °F 29.88 in WNW 9.0 mph 16.0 mph 79 % 0.00 in 0 W/m2
06:54 31.8 °F 26.0 °F 29.88 in WNW 8.0 mph 12.0 mph 79 % 0.00 in 0 W/m2
06:59 31.8 °F 26.0 °F 29.88 in NW 8.0 mph 16.0 mph 79 % 0.00 in 0 W/m2
07:04 31.8 °F 26.0 °F 29.88 in NW 7.0 mph 12.0 mph 79 % 0.00 in 0 W/m2
07:09 31.8 °F 26.0 °F 29.88 in NW 8.0 mph 13.0 mph 79 % 0.00 in 0 W/m2
07:19 31.8 °F 26.0 °F 29.88 in WNW 7.0 mph 12.0 mph 79 % 0.00 in 0 W/m2
07:24 31.6 °F 25.9 °F 29.88 in WNW 7.0 mph 12.0 mph 79 % 0.00 in 0 W/m2
07:29 31.6 °F 25.9 °F 29.88 in NW 9.0 mph 15.0 mph 79 % 0.00 in 0 W/m2
07:34 31.6 °F 25.9 °F 29.88 in NW 7.0 mph 13.0 mph 79 % 0.00 in 0 W/m2
07:44 31.8 °F 26.0 °F 29.88 in NW 8.0 mph 15.0 mph 79 % 0.00 in 0 W/m2
07:49 31.8 °F 26.0 °F 29.88 in NW 10.0 mph 20.0 mph 79 % 0.00 in 0 W/m2
07:54 31.8 °F 26.0 °F 29.88 in WNW 8.0 mph 13.0 mph 79 % 0.00 in 5 W/m2
07:59 32.0 °F 26.2 °F 29.89 in NW 12.0 mph 22.0 mph 79 % 0.00 in 5 W/m2
08:04 32.2 °F 26.4 °F 29.89 in WNW 9.0 mph 13.0 mph 79 % 0.00 in 7 W/m2
08:09 32.2 °F 26.4 °F 29.89 in NW 10.0 mph 19.0 mph 79 % 0.00 in 9 W/m2
08:14 32.4 °F 26.6 °F 29.89 in WNW 9.0 mph 15.0 mph 79 % 0.00 in 11 W/m2
08:19 32.4 °F 26.3 °F 29.89 in WNW 10.0 mph 18.0 mph 78 % 0.00 in 14 W/m2
08:29 32.5 °F 26.4 °F 29.89 in NW 10.0 mph 14.0 mph 78 % 0.00 in 18 W/m2
08:39 32.9 °F 26.8 °F 29.89 in NW 12.0 mph 19.0 mph 78 % 0.00 in 21 W/m2
08:44 33.1 °F 27.0 °F 29.89 in NW 9.0 mph 15.0 mph 78 % 0.00 in 23 W/m2
08:49 33.1 °F 26.7 °F 29.89 in WNW 9.0 mph 15.0 mph 77 % 0.00 in 25 W/m2
08:54 33.1 °F 26.7 °F 29.89 in NW 9.0 mph 16.0 mph 77 % 0.00 in 25 W/m2
08:59 33.3 °F 27.1 °F 29.89 in WNW 7.0 mph 13.0 mph 78 % 0.00 in 26 W/m2
09:04 33.3 °F 26.8 °F 29.89 in WNW 9.0 mph 15.0 mph 77 % 0.00 in 30 W/m2
09:09 33.4 °F 27.0 °F 29.89 in WNW 10.0 mph 18.0 mph 77 % 0.00 in 95 W/m2
09:14 33.6 °F 27.2 °F 29.88 in NW 8.0 mph 16.0 mph 77 % 0.00 in 135 W/m2
09:19 33.8 °F 27.4 °F 29.88 in NW 10.0 mph 15.0 mph 77 % 0.00 in 142 W/m2
09:24 34.2 °F 27.4 °F 29.89 in WNW 9.0 mph 19.0 mph 76 % 0.00 in 162 W/m2
09:29 34.3 °F 27.6 °F 29.89 in NW 7.0 mph 12.0 mph 76 % 0.00 in 153 W/m2
09:50 35.4 °F 27.6 °F 29.89 in NW 9.0 mph 19.0 mph 73 % 0.00 in 183 W/m2
09:55 35.8 °F 27.6 °F 29.89 in NW 9.0 mph 15.0 mph 72 % 0.00 in 190 W/m2
10:00 35.8 °F 27.6 °F 29.89 in NW 13.0 mph 24.0 mph 72 % 0.00 in 197 W/m2
10:05 36.0 °F 27.8 °F 29.89 in NW 13.0 mph 23.0 mph 72 % 0.00 in 200 W/m2
10:10 36.0 °F 27.5 °F 29.88 in NW 13.0 mph 22.0 mph 71 % 0.00 in 209 W/m2
10:20 36.1 °F 27.6 °F 29.89 in NW 12.0 mph 21.0 mph 71 % 0.00 in 220 W/m2
10:25 36.1 °F 27.6 °F 29.89 in NW 12.0 mph 21.0 mph 71 % 0.00 in 225 W/m2
10:35 36.7 °F 28.2 °F 29.89 in NW 13.0 mph 25.0 mph 71 % 0.00 in 237 W/m2
10:40 36.9 °F 28.3 °F 29.89 in NW 8.0 mph 14.0 mph 71 % 0.00 in 241 W/m2
10:45 37.0 °F 28.5 °F 29.89 in NW 9.0 mph 18.0 mph 71 % 0.00 in 246 W/m2
10:50 37.0 °F 28.2 °F 29.89 in NW 11.0 mph 19.0 mph 70 % 0.00 in 251 W/m2
10:55 37.2 °F 28.0 °F 29.89 in NW 12.0 mph 21.0 mph 69 % 0.00 in 265 W/m2
11:05 37.4 °F 28.2 °F 29.89 in NW 8.0 mph 15.0 mph 69 % 0.00 in 272 W/m2
11:10 37.8 °F 28.5 °F 29.88 in NW 9.0 mph 18.0 mph 69 % 0.00 in 292 W/m2
11:20 37.4 °F 27.4 °F 29.88 in NW 12.0 mph 23.0 mph 67 % 0.00 in 155 W/m2
11:35 36.7 °F 27.5 °F 29.89 in NW 14.0 mph 20.0 mph 69 % 0.00 in 114 W/m2
11:40 37.0 °F 28.2 °F 29.89 in NW 11.0 mph 15.0 mph 70 % 0.00 in 274 W/m2
11:45 37.4 °F 28.2 °F 29.89 in NW 9.0 mph 15.0 mph 69 % 0.00 in 290 W/m2
11:50 37.8 °F 28.1 °F 29.89 in NW 10.0 mph 20.0 mph 68 % 0.00 in 195 W/m2
12:05 38.5 °F 28.5 °F 29.89 in NW 11.0 mph 19.0 mph 67 % 0.00 in 353 W/m2
12:10 38.7 °F 28.6 °F 29.89 in NW 12.0 mph 20.0 mph 67 % 0.00 in 251 W/m2
12:20 38.8 °F 28.8 °F 29.88 in NW 8.0 mph 14.0 mph 67 % 0.00 in 139 W/m2
12:25 38.7 °F 28.3 °F 29.89 in NW 10.0 mph 15.0 mph 66 % 0.00 in 139 W/m2
12:30 38.5 °F 28.5 °F 29.89 in NW 9.0 mph 15.0 mph 67 % 0.00 in 132 W/m2
12:35 38.3 °F 28.3 °F 29.88 in NW 8.0 mph 15.0 mph 67 % 0.00 in 114 W/m2
12:45 38.1 °F 28.5 °F 29.89 in NNW 8.0 mph 16.0 mph 68 % 0.00 in 167 W/m2
12:55 38.5 °F 28.8 °F 29.88 in NW 11.0 mph 23.0 mph 68 % 0.00 in 158 W/m2
13:00 38.5 °F 28.8 °F 29.88 in NW 11.0 mph 21.0 mph 68 % 0.00 in 79 W/m2
13:10 38.1 °F 28.5 °F 29.88 in NW 10.0 mph 16.0 mph 68 % 0.00 in 246 W/m2
13:20 38.5 °F 28.8 °F 29.88 in NNW 11.0 mph 19.0 mph 68 % 0.00 in 47 W/m2
13:25 38.5 °F 28.8 °F 29.89 in NW 10.0 mph 15.0 mph 68 % 0.00 in 220 W/m2
13:45 38.5 °F 28.8 °F 29.89 in NW 11.0 mph 16.0 mph 68 % 0.00 in 67 W/m2
13:50 38.5 °F 28.8 °F 29.89 in NNW 10.0 mph 19.0 mph 68 % 0.00 in 69 W/m2
13:55 38.5 °F 29.2 °F 29.88 in NW 9.0 mph 18.0 mph 69 % 0.00 in 86 W/m2
14:00 38.5 °F 29.2 °F 29.88 in NW 10.0 mph 16.0 mph 69 % 0.00 in 163 W/m2
14:05 38.5 °F 29.2 °F 29.89 in NW 8.0 mph 14.0 mph 69 % 0.00 in 69 W/m2
14:11 38.5 °F 29.2 °F 29.89 in NW 12.0 mph 18.0 mph 69 % 0.00 in 37 W/m2
14:16 38.3 °F 29.0 °F 29.89 in NW 9.0 mph 15.0 mph 69 % 0.00 in 39 W/m2
14:20 38.3 °F 29.4 °F 29.90 in NW 6.0 mph 13.0 mph 70 % 0.00 in 51 W/m2
14:25 38.1 °F 29.2 °F 29.90 in NW 10.0 mph 16.0 mph 70 % 0.00 in 102 W/m2
14:31 38.1 °F 29.2 °F 29.89 in NW 7.0 mph 14.0 mph 70 % 0.00 in 77 W/m2
14:41 38.3 °F 29.4 °F 29.89 in NW 11.0 mph 18.0 mph 70 % 0.00 in 58 W/m2
14:51 38.5 °F 29.5 °F 29.89 in NW 9.0 mph 19.0 mph 70 % 0.00 in 51 W/m2
14:53 38.5 °F 29.5 °F 29.90 in NW 9.0 mph 19.0 mph 70 % 0.00 in 47 W/m2
14:58 38.5 °F 29.9 °F 29.90 in NW 7.0 mph 13.0 mph 71 % 0.00 in 37 W/m2
15:08 38.5 °F 29.9 °F 29.90 in NW 5.0 mph 9.0 mph 71 % 0.00 in 39 W/m2
15:18 38.5 °F 29.9 °F 29.90 in NW 12.0 mph 20.0 mph 71 % 0.00 in 18 W/m2
15:23 38.5 °F 30.2 °F 29.91 in NNW 11.0 mph 19.0 mph 72 % 0.00 in 14 W/m2
15:28 38.3 °F 30.1 °F 29.91 in NNW 10.0 mph 18.0 mph 72 % 0.00 in 11 W/m2
15:33 38.1 °F 30.2 °F 29.91 in NNW 8.0 mph 15.0 mph 73 % 0.00 in 7 W/m2
15:38 38.1 °F 30.2 °F 29.91 in NNW 10.0 mph 18.0 mph 73 % 0.00 in 9 W/m2
15:59 37.2 °F 31.3 °F 29.92 in NNW 10.0 mph 15.0 mph 79 % 0.00 in 0 W/m2
16:04 37.0 °F 31.1 °F 29.92 in NNW 8.0 mph 13.0 mph 79 % 0.00 in 0 W/m2
16:09 37.0 °F 31.4 °F 29.92 in NNW 11.0 mph 21.0 mph 80 % 0.00 in 0 W/m2
16:21 36.9 °F 31.6 °F 29.92 in NW 8.0 mph 15.0 mph 81 % 0.00 in 0 W/m2
16:26 36.7 °F 31.4 °F 29.92 in NW 6.0 mph 13.0 mph 81 % 0.00 in 0 W/m2
16:36 36.7 °F 31.4 °F 29.93 in NW 7.0 mph 13.0 mph 81 % 0.00 in 0 W/m2
16:51 36.7 °F 31.4 °F 29.93 in NW 8.0 mph 11.0 mph 81 % 0.00 in 0 W/m2
17:06 36.7 °F 31.4 °F 29.94 in NW 9.0 mph 14.0 mph 81 % 0.00 in 0 W/m2
17:11 36.7 °F 31.4 °F 29.94 in NW 6.0 mph 12.0 mph 81 % 0.00 in 0 W/m2
17:16 36.7 °F 31.4 °F 29.94 in NW 7.0 mph 12.0 mph 81 % 0.00 in 0 W/m2
17:26 36.5 °F 30.9 °F 29.94 in NW 9.0 mph 15.0 mph 80 % 0.00 in 0 W/m2
17:31 36.7 °F 30.8 °F 29.94 in NW 6.0 mph 11.0 mph 79 % 0.00 in 0 W/m2
17:36 36.7 °F 30.8 °F 29.94 in NW 9.0 mph 14.0 mph 79 % 0.00 in 0 W/m2
17:51 36.7 °F 30.1 °F 29.94 in NW 10.0 mph 16.0 mph 77 % 0.00 in 0 W/m2
17:56 36.7 °F 30.1 °F 29.95 in NNW 9.0 mph 19.0 mph 77 % 0.00 in 0 W/m2
18:07 36.9 °F 30.0 °F 29.95 in NNW 7.0 mph 12.0 mph 76 % 0.00 in 0 W/m2
18:12 36.7 °F 30.1 °F 29.95 in NW 8.0 mph 14.0 mph 77 % 0.00 in 0 W/m2
18:17 36.7 °F 30.1 °F 29.95 in NW 9.0 mph 18.0 mph 77 % 0.00 in 0 W/m2
18:32 36.5 °F 30.0 °F 29.95 in NW 9.0 mph 14.0 mph 77 % 0.00 in 0 W/m2
18:37 36.7 °F 30.5 °F 29.95 in NW 7.0 mph 10.0 mph 78 % 0.00 in 0 W/m2
18:42 36.7 °F 30.5 °F 29.96 in NW 7.0 mph 12.0 mph 78 % 0.00 in 0 W/m2
18:47 36.7 °F 31.1 °F 29.96 in NW 8.0 mph 14.0 mph 80 % 0.00 in 0 W/m2
18:52 36.3 °F 31.4 °F 29.96 in NW 8.0 mph 15.0 mph 82 % 0.00 in 0 W/m2
19:02 36.0 °F 31.3 °F 29.96 in NW 8.0 mph 16.0 mph 83 % 0.00 in 0 W/m2
19:07 35.8 °F 31.1 °F 29.96 in NW 8.0 mph 13.0 mph 83 % 0.00 in 0 W/m2
19:22 35.8 °F 30.8 °F 29.97 in NW 10.0 mph 19.0 mph 82 % 0.00 in 0 W/m2
19:27 36.0 °F 31.0 °F 29.97 in NW 9.0 mph 15.0 mph 82 % 0.00 in 0 W/m2
19:32 36.1 °F 31.2 °F 29.97 in NW 7.0 mph 12.0 mph 82 % 0.00 in 0 W/m2
19:39 36.3 °F 31.0 °F 29.98 in NW 7.0 mph 12.0 mph 81 % 0.00 in 0 W/m2
19:44 36.3 °F 31.4 °F 29.98 in NNW 10.0 mph 19.0 mph 82 % 0.00 in 0 W/m2
19:49 36.5 °F 31.5 °F 29.98 in NNW 11.0 mph 18.0 mph 82 % 0.00 in 0 W/m2
19:59 36.5 °F 32.1 °F 29.98 in NNW 7.0 mph 14.0 mph 84 % 0.00 in 0 W/m2
20:04 36.3 °F 31.9 °F 29.99 in NNW 8.0 mph 16.0 mph 84 % 0.00 in 0 W/m2
20:09 36.3 °F 32.2 °F 29.99 in NNW 8.0 mph 16.0 mph 85 % 0.00 in 0 W/m2
20:14 36.1 °F 32.1 °F 29.99 in NNW 7.0 mph 11.0 mph 85 % 0.00 in 0 W/m2
20:19 36.1 °F 32.4 °F 29.99 in NNW 9.0 mph 16.0 mph 86 % 0.00 in 0 W/m2
20:24 36.0 °F 32.2 °F 29.99 in NNW 8.0 mph 16.0 mph 86 % 0.00 in 0 W/m2
20:29 35.8 °F 32.0 °F 29.99 in NW 8.0 mph 15.0 mph 86 % 0.00 in 0 W/m2
20:34 35.8 °F 32.3 °F 29.99 in NW 5.0 mph 10.0 mph 87 % 0.00 in 0 W/m2
20:39 35.8 °F 32.3 °F 29.99 in NW 7.0 mph 14.0 mph 87 % 0.00 in 0 W/m2
20:44 35.6 °F 32.1 °F 29.99 in NW 8.0 mph 14.0 mph 87 % 0.00 in 0 W/m2
20:49 35.4 °F 32.2 °F 30.00 in NW 5.0 mph 9.0 mph 88 % 0.00 in 0 W/m2
20:54 35.1 °F 31.9 °F 30.00 in NW 7.0 mph 13.0 mph 88 % 0.00 in 0 W/m2
20:59 34.9 °F 32.0 °F 30.00 in NW 7.0 mph 13.0 mph 89 % 0.00 in 0 W/m2
21:04 34.7 °F 32.1 °F 30.00 in NW 8.0 mph 16.0 mph 90 % 0.00 in 0 W/m2
21:14 34.7 °F 32.3 °F 30.00 in NW 9.0 mph 16.0 mph 91 % 0.00 in 0 W/m2
21:19 34.9 °F 32.5 °F 30.00 in NW 7.0 mph 14.0 mph 91 % 0.00 in 0 W/m2
21:30 35.1 °F 32.7 °F 30.01 in NW 9.0 mph 14.0 mph 91 % 0.00 in 0 W/m2
21:35 35.1 °F 32.7 °F 30.01 in NW 8.0 mph 13.0 mph 91 % 0.01 in 0 W/m2
21:40 35.1 °F 32.7 °F 30.01 in NW 6.0 mph 15.0 mph 91 % 0.01 in 0 W/m2
21:45 35.1 °F 32.4 °F 30.01 in NW 6.0 mph 9.0 mph 90 % 0.01 in 0 W/m2
21:50 34.9 °F 32.5 °F 30.01 in NW 8.0 mph 14.0 mph 91 % 0.01 in 0 W/m2
21:55 34.7 °F 32.3 °F 30.01 in NW 8.0 mph 14.0 mph 91 % 0.02 in 0 W/m2
22:00 34.7 °F 32.3 °F 30.01 in NW 7.0 mph 13.0 mph 91 % 0.02 in 0 W/m2
22:05 34.7 °F 32.3 °F 30.01 in NW 4.0 mph 10.0 mph 91 % 0.02 in 0 W/m2
22:10 34.7 °F 32.6 °F 30.01 in NW 6.0 mph 12.0 mph 92 % 0.02 in 0 W/m2
22:15 34.9 °F 32.8 °F 30.01 in NW 7.0 mph 11.0 mph 92 % 0.02 in 0 W/m2
22:20 34.9 °F 32.8 °F 30.01 in NW 7.0 mph 13.0 mph 92 % 0.02 in 0 W/m2
22:25 34.9 °F 32.8 °F 30.01 in NW 10.0 mph 16.0 mph 92 % 0.02 in 0 W/m2
22:30 34.7 °F 32.6 °F 30.01 in NW 7.0 mph 12.0 mph 92 % 0.02 in 0 W/m2
22:35 34.5 °F 32.4 °F 30.01 in NW 5.0 mph 10.0 mph 92 % 0.02 in 0 W/m2
22:40 34.3 °F 32.3 °F 30.01 in NW 6.0 mph 11.0 mph 92 % 0.02 in 0 W/m2
22:50 34.3 °F 32.5 °F 30.01 in NW 8.0 mph 14.0 mph 93 % 0.02 in 0 W/m2
22:55 34.5 °F 32.7 °F 30.01 in NW 9.0 mph 16.0 mph 93 % 0.02 in 0 W/m2
23:00 34.7 °F 32.9 °F 30.01 in NW 9.0 mph 20.0 mph 93 % 0.02 in 0 W/m2
23:05 34.9 °F 33.1 °F 30.01 in NW 10.0 mph 20.0 mph 93 % 0.02 in 0 W/m2
23:15 35.1 °F 33.2 °F 30.02 in NW 9.0 mph 15.0 mph 93 % 0.02 in 0 W/m2
23:20 35.1 °F 33.2 °F 30.02 in NW 8.0 mph 13.0 mph 93 % 0.02 in 0 W/m2
23:25 35.1 °F 33.2 °F 30.02 in NW 8.0 mph 14.0 mph 93 % 0.02 in 0 W/m2
23:30 35.1 °F 33.2 °F 30.02 in NW 8.0 mph 14.0 mph 93 % 0.02 in 0 W/m2
23:35 35.2 °F 33.1 °F 30.02 in NW 10.0 mph 21.0 mph 92 % 0.02 in 0 W/m2
23:40 35.2 °F 33.1 °F 30.02 in NW 7.0 mph 13.0 mph 92 % 0.02 in 0 W/m2
23:45 35.4 °F 33.3 °F 30.03 in NNW 10.0 mph 22.0 mph 92 % 0.02 in 0 W/m2
Delerius-Weather
Compliments of Weather Underground - 1.75 mb

Data updates at regular intervals.